sensor_id;sensor_type;location;lat;lon;timestamp;temperature;humidity
16064;DHT22;8136;53.172;8.256;2023-06-14T00:00:34;17.70;99.90
16064;DHT22;8136;53.172;8.256;2023-06-14T00:03:01;17.70;99.90
16064;DHT22;8136;53.172;8.256;2023-06-14T00:05:29;17.60;99.90
16064;DHT22;8136;53.172;8.256;2023-06-14T00:07:59;17.50;99.90
16064;DHT22;8136;53.172;8.256;2023-06-14T00:10:26;17.50;99.90
16064;DHT22;8136;53.172;8.256;2023-06-14T00:12:57;17.50;99.90
16064;DHT22;8136;53.172;8.256;2023-06-14T00:15:25;17.50;99.90
16064;DHT22;8136;53.172;8.256;2023-06-14T00:17:52;17.50;99.90
16064;DHT22;8136;53.172;8.256;2023-06-14T00:20:20;17.40;99.90
16064;DHT22;8136;53.172;8.256;2023-06-14T00:22:46;17.40;99.90
16064;DHT22;8136;53.172;8.256;2023-06-14T00:25:13;17.40;99.90
16064;DHT22;8136;53.172;8.256;2023-06-14T00:27:40;17.30;99.90
16064;DHT22;8136;53.172;8.256;2023-06-14T00:30:09;17.20;99.90
16064;DHT22;8136;53.172;8.256;2023-06-14T00:32:36;17.10;99.90
16064;DHT22;8136;53.172;8.256;2023-06-14T00:35:03;17.10;99.90
16064;DHT22;8136;53.172;8.256;2023-06-14T00:37:30;17.10;99.90
16064;DHT22;8136;53.172;8.256;2023-06-14T00:39:57;17.10;99.90
16064;DHT22;8136;53.172;8.256;2023-06-14T00:42:24;17.00;99.90
16064;DHT22;8136;53.172;8.256;2023-06-14T00:44:52;17.00;99.90
16064;DHT22;8136;53.172;8.256;2023-06-14T00:47:20;17.00;99.90
16064;DHT22;8136;53.172;8.256;2023-06-14T00:49:48;16.80;99.90
16064;DHT22;8136;53.172;8.256;2023-06-14T00:52:15;16.80;99.90
16064;DHT22;8136;53.172;8.256;2023-06-14T00:54:43;16.80;99.90
16064;DHT22;8136;53.172;8.256;2023-06-14T00:57:10;16.70;99.90
16064;DHT22;8136;53.172;8.256;2023-06-14T00:59:42;16.70;99.90
16064;DHT22;8136;53.172;8.256;2023-06-14T01:02:09;16.60;99.90
16064;DHT22;8136;53.172;8.256;2023-06-14T01:04:38;16.60;99.90
16064;DHT22;8136;53.172;8.256;2023-06-14T01:07:12;16.60;99.90
16064;DHT22;8136;53.172;8.256;2023-06-14T01:09:48;16.60;99.90
16064;DHT22;8136;53.172;8.256;2023-06-14T01:12:24;16.60;99.90
16064;DHT22;8136;53.172;8.256;2023-06-14T01:14:53;16.50;99.90
16064;DHT22;8136;53.172;8.256;2023-06-14T01:17:21;16.40;99.90
16064;DHT22;8136;53.172;8.256;2023-06-14T01:19:51;16.50;99.90
16064;DHT22;8136;53.172;8.256;2023-06-14T01:22:24;16.40;99.90
16064;DHT22;8136;53.172;8.256;2023-06-14T01:24:53;16.40;99.90
16064;DHT22;8136;53.172;8.256;2023-06-14T01:27:22;16.40;99.90
16064;DHT22;8136;53.172;8.256;2023-06-14T01:29:50;16.40;99.90
16064;DHT22;8136;53.172;8.256;2023-06-14T01:32:22;16.40;99.90
16064;DHT22;8136;53.172;8.256;2023-06-14T01:34:49;16.30;99.90
16064;DHT22;8136;53.172;8.256;2023-06-14T01:37:17;16.30;99.90
16064;DHT22;8136;53.172;8.256;2023-06-14T01:39:44;16.30;99.90
16064;DHT22;8136;53.172;8.256;2023-06-14T01:42:13;16.30;99.90
16064;DHT22;8136;53.172;8.256;2023-06-14T01:44:42;16.20;99.90
16064;DHT22;8136;53.172;8.256;2023-06-14T01:47:09;16.20;99.90
16064;DHT22;8136;53.172;8.256;2023-06-14T01:49:38;16.20;99.90
16064;DHT22;8136;53.172;8.256;2023-06-14T01:52:06;16.10;99.90
16064;DHT22;8136;53.172;8.256;2023-06-14T01:54:35;16.10;99.90
16064;DHT22;8136;53.172;8.256;2023-06-14T01:57:03;16.10;99.90
16064;DHT22;8136;53.172;8.256;2023-06-14T01:59:33;16.00;99.90
16064;DHT22;8136;53.172;8.256;2023-06-14T02:02:01;15.90;99.90
16064;DHT22;8136;53.172;8.256;2023-06-14T02:04:27;16.00;99.90
16064;DHT22;8136;53.172;8.256;2023-06-14T02:06:54;15.90;99.90
16064;DHT22;8136;53.172;8.256;2023-06-14T02:09:21;15.90;99.90
16064;DHT22;8136;53.172;8.256;2023-06-14T02:11:49;15.80;99.90
16064;DHT22;8136;53.172;8.256;2023-06-14T02:14:16;15.80;99.90
16064;DHT22;8136;53.172;8.256;2023-06-14T02:16:44;15.80;99.90
16064;DHT22;8136;53.172;8.256;2023-06-14T02:19:14;15.80;99.90
16064;DHT22;8136;53.172;8.256;2023-06-14T02:21:41;15.70;99.90
16064;DHT22;8136;53.172;8.256;2023-06-14T02:24:08;15.70;99.90
16064;DHT22;8136;53.172;8.256;2023-06-14T02:26:35;15.60;99.90
16064;DHT22;8136;53.172;8.256;2023-06-14T02:32:26;15.60;99.90
16064;DHT22;8136;53.172;8.256;2023-06-14T02:34:53;15.50;99.90
16064;DHT22;8136;53.172;8.256;2023-06-14T02:37:20;15.40;99.90
16064;DHT22;8136;53.172;8.256;2023-06-14T02:39:47;15.50;99.90
16064;DHT22;8136;53.172;8.256;2023-06-14T02:42:14;15.50;99.90
16064;DHT22;8136;53.172;8.256;2023-06-14T02:44:40;15.50;99.90
16064;DHT22;8136;53.172;8.256;2023-06-14T02:47:08;15.50;99.90
16064;DHT22;8136;53.172;8.256;2023-06-14T02:49:37;15.40;99.90
16064;DHT22;8136;53.172;8.256;2023-06-14T02:52:04;15.40;99.90
16064;DHT22;8136;53.172;8.256;2023-06-14T02:54:31;15.40;99.90
16064;DHT22;8136;53.172;8.256;2023-06-14T02:56:58;15.30;99.90
16064;DHT22;8136;53.172;8.256;2023-06-14T02:59:25;15.30;99.90
16064;DHT22;8136;53.172;8.256;2023-06-14T03:01:52;15.40;99.90
16064;DHT22;8136;53.172;8.256;2023-06-14T03:04:19;15.30;99.90
16064;DHT22;8136;53.172;8.256;2023-06-14T03:06:47;15.30;99.90
16064;DHT22;8136;53.172;8.256;2023-06-14T03:09:15;15.30;99.90
16064;DHT22;8136;53.172;8.256;2023-06-14T03:11:42;15.20;99.90
16064;DHT22;8136;53.172;8.256;2023-06-14T03:14:09;15.20;99.90
16064;DHT22;8136;53.172;8.256;2023-06-14T03:16:37;15.20;99.90
16064;DHT22;8136;53.172;8.256;2023-06-14T03:19:03;15.20;99.90
16064;DHT22;8136;53.172;8.256;2023-06-14T03:21:30;15.20;99.90
16064;DHT22;8136;53.172;8.256;2023-06-14T03:23:59;15.20;99.90
16064;DHT22;8136;53.172;8.256;2023-06-14T03:26:26;15.20;99.90
16064;DHT22;8136;53.172;8.256;2023-06-14T03:28:52;15.20;99.90
16064;DHT22;8136;53.172;8.256;2023-06-14T03:31:19;15.20;99.90
16064;DHT22;8136;53.172;8.256;2023-06-14T03:33:46;15.20;99.90
16064;DHT22;8136;53.172;8.256;2023-06-14T03:39:36;15.10;99.90
16064;DHT22;8136;53.172;8.256;2023-06-14T03:42:04;15.10;99.90
16064;DHT22;8136;53.172;8.256;2023-06-14T03:44:31;15.10;99.90
16064;DHT22;8136;53.172;8.256;2023-06-14T03:46:57;15.20;99.90
16064;DHT22;8136;53.172;8.256;2023-06-14T03:49:24;15.30;99.90
16064;DHT22;8136;53.172;8.256;2023-06-14T03:51:51;15.20;99.90
16064;DHT22;8136;53.172;8.256;2023-06-14T03:54:18;15.20;99.90
16064;DHT22;8136;53.172;8.256;2023-06-14T03:56:46;15.20;99.90
16064;DHT22;8136;53.172;8.256;2023-06-14T03:59:13;15.20;99.90
16064;DHT22;8136;53.172;8.256;2023-06-14T04:01:40;15.20;99.90
16064;DHT22;8136;53.172;8.256;2023-06-14T04:04:11;15.20;99.90
16064;DHT22;8136;53.172;8.256;2023-06-14T04:06:38;15.30;99.90
16064;DHT22;8136;53.172;8.256;2023-06-14T04:09:06;15.30;99.90
16064;DHT22;8136;53.172;8.256;2023-06-14T04:11:33;15.30;99.90
16064;DHT22;8136;53.172;8.256;2023-06-14T04:14:02;15.30;99.90
16064;DHT22;8136;53.172;8.256;2023-06-14T04:16:29;15.30;99.90
16064;DHT22;8136;53.172;8.256;2023-06-14T04:18:55;15.30;99.90
16064;DHT22;8136;53.172;8.256;2023-06-14T04:21:23;15.30;99.90
16064;DHT22;8136;53.172;8.256;2023-06-14T04:23:51;15.30;99.90
16064;DHT22;8136;53.172;8.256;2023-06-14T04:26:20;15.40;99.90
16064;DHT22;8136;53.172;8.256;2023-06-14T04:28:49;15.40;99.90
16064;DHT22;8136;53.172;8.256;2023-06-14T04:31:17;15.40;99.90
16064;DHT22;8136;53.172;8.256;2023-06-14T04:33:44;15.50;99.90
16064;DHT22;8136;53.172;8.256;2023-06-14T04:36:12;15.50;99.90
16064;DHT22;8136;53.172;8.256;2023-06-14T04:38:39;15.50;99.90
16064;DHT22;8136;53.172;8.256;2023-06-14T04:41:06;15.50;99.90
16064;DHT22;8136;53.172;8.256;2023-06-14T04:43:37;15.50;99.90
16064;DHT22;8136;53.172;8.256;2023-06-14T04:46:04;15.60;99.90
16064;DHT22;8136;53.172;8.256;2023-06-14T04:48:36;15.60;99.90
16064;DHT22;8136;53.172;8.256;2023-06-14T04:51:05;15.70;99.90
16064;DHT22;8136;53.172;8.256;2023-06-14T04:53:32;15.70;99.90
16064;DHT22;8136;53.172;8.256;2023-06-14T04:55:59;15.80;99.90
16064;DHT22;8136;53.172;8.256;2023-06-14T04:58:26;15.80;99.90
16064;DHT22;8136;53.172;8.256;2023-06-14T05:00:54;15.80;99.90
16064;DHT22;8136;53.172;8.256;2023-06-14T05:03:21;15.80;99.90
16064;DHT22;8136;53.172;8.256;2023-06-14T05:05:50;15.90;99.90
16064;DHT22;8136;53.172;8.256;2023-06-14T05:08:18;16.00;99.90
16064;DHT22;8136;53.172;8.256;2023-06-14T05:10:45;16.00;99.90
16064;DHT22;8136;53.172;8.256;2023-06-14T05:13:12;16.10;99.90
16064;DHT22;8136;53.172;8.256;2023-06-14T05:15:39;16.10;99.90
16064;DHT22;8136;53.172;8.256;2023-06-14T05:18:05;16.20;99.90
16064;DHT22;8136;53.172;8.256;2023-06-14T05:20:35;16.20;99.90
16064;DHT22;8136;53.172;8.256;2023-06-14T05:23:03;16.30;99.90
16064;DHT22;8136;53.172;8.256;2023-06-14T05:25:30;16.40;99.90
16064;DHT22;8136;53.172;8.256;2023-06-14T05:27:57;16.50;99.90
16064;DHT22;8136;53.172;8.256;2023-06-14T05:30:24;16.50;99.90
16064;DHT22;8136;53.172;8.256;2023-06-14T05:32:51;16.60;99.90
16064;DHT22;8136;53.172;8.256;2023-06-14T05:35:20;16.60;99.90
16064;DHT22;8136;53.172;8.256;2023-06-14T05:37:48;16.70;99.90
16064;DHT22;8136;53.172;8.256;2023-06-14T05:40:16;16.70;99.90
16064;DHT22;8136;53.172;8.256;2023-06-14T05:42:43;16.80;99.90
16064;DHT22;8136;53.172;8.256;2023-06-14T05:45:10;16.90;99.90
16064;DHT22;8136;53.172;8.256;2023-06-14T05:47:37;16.90;99.90
16064;DHT22;8136;53.172;8.256;2023-06-14T05:50:07;17.00;99.90
16064;DHT22;8136;53.172;8.256;2023-06-14T05:52:34;17.10;99.90
16064;DHT22;8136;53.172;8.256;2023-06-14T05:55:02;17.20;99.90
16064;DHT22;8136;53.172;8.256;2023-06-14T05:57:30;17.30;99.90
16064;DHT22;8136;53.172;8.256;2023-06-14T05:59:57;17.40;99.90
16064;DHT22;8136;53.172;8.256;2023-06-14T06:02:24;17.40;99.90
16064;DHT22;8136;53.172;8.256;2023-06-14T06:04:51;17.50;99.90
16064;DHT22;8136;53.172;8.256;2023-06-14T06:07:17;17.50;99.90
16064;DHT22;8136;53.172;8.256;2023-06-14T06:09:44;17.60;99.90
16064;DHT22;8136;53.172;8.256;2023-06-14T06:12:11;17.80;99.90
16064;DHT22;8136;53.172;8.256;2023-06-14T06:14:39;17.80;99.90
16064;DHT22;8136;53.172;8.256;2023-06-14T06:17:06;17.80;99.90
16064;DHT22;8136;53.172;8.256;2023-06-14T06:19:33;18.00;99.90
16064;DHT22;8136;53.172;8.256;2023-06-14T06:21:59;18.00;99.90
16064;DHT22;8136;53.172;8.256;2023-06-14T06:24:26;18.10;99.90
16064;DHT22;8136;53.172;8.256;2023-06-14T06:26:53;18.20;99.90
16064;DHT22;8136;53.172;8.256;2023-06-14T06:29:20;18.30;99.90
16064;DHT22;8136;53.172;8.256;2023-06-14T06:31:48;18.30;99.90
16064;DHT22;8136;53.172;8.256;2023-06-14T06:34:15;18.40;99.90
16064;DHT22;8136;53.172;8.256;2023-06-14T06:36:42;18.50;99.90
16064;DHT22;8136;53.172;8.256;2023-06-14T06:39:08;18.60;99.90
16064;DHT22;8136;53.172;8.256;2023-06-14T06:41:36;18.70;99.90
16064;DHT22;8136;53.172;8.256;2023-06-14T06:44:05;18.80;99.90
16064;DHT22;8136;53.172;8.256;2023-06-14T06:46:32;19.00;99.90
16064;DHT22;8136;53.172;8.256;2023-06-14T06:49:00;19.00;99.90
16064;DHT22;8136;53.172;8.256;2023-06-14T06:51:27;19.20;99.90
16064;DHT22;8136;53.172;8.256;2023-06-14T06:53:53;19.30;99.90
16064;DHT22;8136;53.172;8.256;2023-06-14T06:56:20;19.40;99.90
16064;DHT22;8136;53.172;8.256;2023-06-14T06:58:48;19.40;99.90
16064;DHT22;8136;53.172;8.256;2023-06-14T07:01:15;19.50;99.90
16064;DHT22;8136;53.172;8.256;2023-06-14T07:03:42;19.50;99.90
16064;DHT22;8136;53.172;8.256;2023-06-14T07:06:10;19.70;99.90
16064;DHT22;8136;53.172;8.256;2023-06-14T07:08:37;19.70;99.90
16064;DHT22;8136;53.172;8.256;2023-06-14T07:11:04;19.70;99.90
16064;DHT22;8136;53.172;8.256;2023-06-14T07:13:31;19.60;99.90
16064;DHT22;8136;53.172;8.256;2023-06-14T07:15:59;19.70;99.90
16064;DHT22;8136;53.172;8.256;2023-06-14T07:18:26;19.70;99.90
16064;DHT22;8136;53.172;8.256;2023-06-14T07:20:53;19.80;99.90
16064;DHT22;8136;53.172;8.256;2023-06-14T07:23:22;19.80;99.90
16064;DHT22;8136;53.172;8.256;2023-06-14T07:25:49;19.90;99.90
16064;DHT22;8136;53.172;8.256;2023-06-14T07:28:16;19.90;99.90
16064;DHT22;8136;53.172;8.256;2023-06-14T07:30:43;20.00;99.90
16064;DHT22;8136;53.172;8.256;2023-06-14T07:33:10;20.00;99.90
16064;DHT22;8136;53.172;8.256;2023-06-14T07:35:37;20.10;99.90
16064;DHT22;8136;53.172;8.256;2023-06-14T07:38:04;20.20;99.90
16064;DHT22;8136;53.172;8.256;2023-06-14T07:40:32;20.30;99.90
16064;DHT22;8136;53.172;8.256;2023-06-14T07:42:59;20.40;99.90
16064;DHT22;8136;53.172;8.256;2023-06-14T07:45:27;20.50;99.90
16064;DHT22;8136;53.172;8.256;2023-06-14T07:47:53;20.50;99.90
16064;DHT22;8136;53.172;8.256;2023-06-14T07:50:20;20.50;99.90
16064;DHT22;8136;53.172;8.256;2023-06-14T07:52:47;20.60;99.90
16064;DHT22;8136;53.172;8.256;2023-06-14T07:55:14;20.70;99.90
16064;DHT22;8136;53.172;8.256;2023-06-14T07:57:43;20.70;99.90
16064;DHT22;8136;53.172;8.256;2023-06-14T08:00:11;20.80;99.90
16064;DHT22;8136;53.172;8.256;2023-06-14T08:02:41;20.90;99.90
16064;DHT22;8136;53.172;8.256;2023-06-14T08:05:09;21.00;99.90
16064;DHT22;8136;53.172;8.256;2023-06-14T08:07:37;21.10;99.90
16064;DHT22;8136;53.172;8.256;2023-06-14T08:10:04;21.10;99.90
16064;DHT22;8136;53.172;8.256;2023-06-14T08:12:32;21.20;99.90
16064;DHT22;8136;53.172;8.256;2023-06-14T08:15:00;21.20;99.90
16064;DHT22;8136;53.172;8.256;2023-06-14T08:17:27;21.30;99.90
16064;DHT22;8136;53.172;8.256;2023-06-14T08:19:53;21.30;99.90
16064;DHT22;8136;53.172;8.256;2023-06-14T08:22:22;21.40;99.90
16064;DHT22;8136;53.172;8.256;2023-06-14T08:24:51;21.40;99.90
16064;DHT22;8136;53.172;8.256;2023-06-14T08:27:19;21.60;99.90
16064;DHT22;8136;53.172;8.256;2023-06-14T08:29:46;21.70;99.90
16064;DHT22;8136;53.172;8.256;2023-06-14T08:32:14;21.70;99.90
16064;DHT22;8136;53.172;8.256;2023-06-14T08:34:41;21.80;99.90
16064;DHT22;8136;53.172;8.256;2023-06-14T08:37:07;21.90;99.90
16064;DHT22;8136;53.172;8.256;2023-06-14T08:39:34;22.00;99.90
16064;DHT22;8136;53.172;8.256;2023-06-14T08:42:01;22.00;99.90
16064;DHT22;8136;53.172;8.256;2023-06-14T08:44:28;22.00;99.90
16064;DHT22;8136;53.172;8.256;2023-06-14T08:46:56;22.10;99.90
16064;DHT22;8136;53.172;8.256;2023-06-14T08:49:25;22.20;99.90
16064;DHT22;8136;53.172;8.256;2023-06-14T08:51:57;22.30;99.90
16064;DHT22;8136;53.172;8.256;2023-06-14T08:54:25;22.40;99.90
16064;DHT22;8136;53.172;8.256;2023-06-14T08:56:52;22.50;99.90
16064;DHT22;8136;53.172;8.256;2023-06-14T08:59:23;22.60;99.90
16064;DHT22;8136;53.172;8.256;2023-06-14T09:01:51;22.60;99.90
16064;DHT22;8136;53.172;8.256;2023-06-14T09:04:19;22.80;99.90
16064;DHT22;8136;53.172;8.256;2023-06-14T09:06:48;22.80;99.90
16064;DHT22;8136;53.172;8.256;2023-06-14T09:09:18;22.90;99.90
16064;DHT22;8136;53.172;8.256;2023-06-14T09:11:46;22.90;99.90
16064;DHT22;8136;53.172;8.256;2023-06-14T09:14:13;23.00;99.90
16064;DHT22;8136;53.172;8.256;2023-06-14T09:16:39;23.10;98.60
16064;DHT22;8136;53.172;8.256;2023-06-14T09:19:06;23.00;98.30
16064;DHT22;8136;53.172;8.256;2023-06-14T09:21:34;23.00;99.30
16064;DHT22;8136;53.172;8.256;2023-06-14T09:24:03;23.00;99.10
16064;DHT22;8136;53.172;8.256;2023-06-14T09:26:31;23.00;99.70
16064;DHT22;8136;53.172;8.256;2023-06-14T09:28:57;23.00;99.30
16064;DHT22;8136;53.172;8.256;2023-06-14T09:31:25;22.90;99.70
16064;DHT22;8136;53.172;8.256;2023-06-14T09:33:57;23.00;99.90
16064;DHT22;8136;53.172;8.256;2023-06-14T09:36:25;23.10;99.90
16064;DHT22;8136;53.172;8.256;2023-06-14T09:38:53;23.20;99.20
16064;DHT22;8136;53.172;8.256;2023-06-14T09:41:27;23.20;98.10
16064;DHT22;8136;53.172;8.256;2023-06-14T09:43:58;23.30;99.50
16064;DHT22;8136;53.172;8.256;2023-06-14T09:46:27;23.30;98.70
16064;DHT22;8136;53.172;8.256;2023-06-14T09:48:53;23.30;99.70
16064;DHT22;8136;53.172;8.256;2023-06-14T09:51:22;23.50;99.70
16064;DHT22;8136;53.172;8.256;2023-06-14T09:53:50;23.60;99.60
16064;DHT22;8136;53.172;8.256;2023-06-14T09:56:23;23.70;98.00
16064;DHT22;8136;53.172;8.256;2023-06-14T09:58:55;23.80;99.20
16064;DHT22;8136;53.172;8.256;2023-06-14T10:01:23;23.80;99.20
16064;DHT22;8136;53.172;8.256;2023-06-14T10:03:52;24.00;99.20
16064;DHT22;8136;53.172;8.256;2023-06-14T10:06:20;23.90;97.70
16064;DHT22;8136;53.172;8.256;2023-06-14T10:08:50;24.00;97.60
16064;DHT22;8136;53.172;8.256;2023-06-14T10:11:18;24.10;98.40
16064;DHT22;8136;53.172;8.256;2023-06-14T10:13:47;24.10;99.40
16064;DHT22;8136;53.172;8.256;2023-06-14T10:16:19;24.30;99.70
16064;DHT22;8136;53.172;8.256;2023-06-14T10:18:50;24.40;98.30
16064;DHT22;8136;53.172;8.256;2023-06-14T10:21:22;24.50;98.60
16064;DHT22;8136;53.172;8.256;2023-06-14T10:23:52;24.60;97.80
16064;DHT22;8136;53.172;8.256;2023-06-14T10:26:20;24.60;97.60
16064;DHT22;8136;53.172;8.256;2023-06-14T10:29:00;24.60;97.50
16064;DHT22;8136;53.172;8.256;2023-06-14T10:31:46;24.60;97.60
16064;DHT22;8136;53.172;8.256;2023-06-14T10:34:21;24.60;97.10
16064;DHT22;8136;53.172;8.256;2023-06-14T10:37:01;24.70;98.70
16064;DHT22;8136;53.172;8.256;2023-06-14T10:39:29;24.80;98.40
16064;DHT22;8136;53.172;8.256;2023-06-14T10:41:57;25.00;97.60
16064;DHT22;8136;53.172;8.256;2023-06-14T10:44:33;25.00;95.90
16064;DHT22;8136;53.172;8.256;2023-06-14T10:47:00;25.10;95.60
16064;DHT22;8136;53.172;8.256;2023-06-14T10:49:38;25.10;97.40
16064;DHT22;8136;53.172;8.256;2023-06-14T10:52:08;25.10;96.50
16064;DHT22;8136;53.172;8.256;2023-06-14T10:55:01;25.20;96.30
16064;DHT22;8136;53.172;8.256;2023-06-14T10:57:29;25.20;96.70
16064;DHT22;8136;53.172;8.256;2023-06-14T10:59:59;25.30;96.90
16064;DHT22;8136;53.172;8.256;2023-06-14T11:03:05;25.40;95.10
16064;DHT22;8136;53.172;8.256;2023-06-14T11:05:49;25.50;96.70
16064;DHT22;8136;53.172;8.256;2023-06-14T11:11:32;25.50;94.90
16064;DHT22;8136;53.172;8.256;2023-06-14T11:14:00;25.60;96.70
16064;DHT22;8136;53.172;8.256;2023-06-14T11:16:29;25.70;96.10
16064;DHT22;8136;53.172;8.256;2023-06-14T11:19:00;25.90;95.20
16064;DHT22;8136;53.172;8.256;2023-06-14T11:21:28;25.90;95.90
16064;DHT22;8136;53.172;8.256;2023-06-14T11:23:57;26.00;94.50
16064;DHT22;8136;53.172;8.256;2023-06-14T11:26:27;26.00;94.20
16064;DHT22;8136;53.172;8.256;2023-06-14T11:28:57;26.00;94.30
16064;DHT22;8136;53.172;8.256;2023-06-14T11:31:24;26.00;94.80
16064;DHT22;8136;53.172;8.256;2023-06-14T11:33:54;26.00;95.40
16064;DHT22;8136;53.172;8.256;2023-06-14T11:36:22;26.10;94.20
16064;DHT22;8136;53.172;8.256;2023-06-14T11:38:49;26.10;93.60
16064;DHT22;8136;53.172;8.256;2023-06-14T11:41:16;26.00;94.10
16064;DHT22;8136;53.172;8.256;2023-06-14T11:43:42;25.90;94.70
16064;DHT22;8136;53.172;8.256;2023-06-14T11:46:13;25.90;95.00
16064;DHT22;8136;53.172;8.256;2023-06-14T11:48:42;26.10;94.70
16064;DHT22;8136;53.172;8.256;2023-06-14T11:51:10;26.10;93.40
16064;DHT22;8136;53.172;8.256;2023-06-14T11:53:37;26.20;94.20
16064;DHT22;8136;53.172;8.256;2023-06-14T11:56:04;26.40;93.90
16064;DHT22;8136;53.172;8.256;2023-06-14T11:58:31;26.60;93.40
16064;DHT22;8136;53.172;8.256;2023-06-14T12:00:58;26.70;91.80
16064;DHT22;8136;53.172;8.256;2023-06-14T12:03:25;26.70;91.50
16064;DHT22;8136;53.172;8.256;2023-06-14T12:06:02;26.80;92.20
16064;DHT22;8136;53.172;8.256;2023-06-14T12:08:34;26.90;91.90
16064;DHT22;8136;53.172;8.256;2023-06-14T12:11:05;26.80;91.50
16064;DHT22;8136;53.172;8.256;2023-06-14T12:13:34;26.70;93.00
16064;DHT22;8136;53.172;8.256;2023-06-14T12:16:01;26.80;92.60
16064;DHT22;8136;53.172;8.256;2023-06-14T12:18:32;26.80;92.10
16064;DHT22;8136;53.172;8.256;2023-06-14T12:21:00;26.90;91.30
16064;DHT22;8136;53.172;8.256;2023-06-14T12:23:42;26.90;91.70
16064;DHT22;8136;53.172;8.256;2023-06-14T12:26:09;27.00;91.20
16064;DHT22;8136;53.172;8.256;2023-06-14T12:28:36;27.10;90.90
16064;DHT22;8136;53.172;8.256;2023-06-14T12:31:02;27.30;90.80
16064;DHT22;8136;53.172;8.256;2023-06-14T12:33:30;27.20;90.30
16064;DHT22;8136;53.172;8.256;2023-06-14T12:35:57;27.40;90.90
16064;DHT22;8136;53.172;8.256;2023-06-14T12:38:24;27.50;92.30
16064;DHT22;8136;53.172;8.256;2023-06-14T12:40:52;27.50;90.70
16064;DHT22;8136;53.172;8.256;2023-06-14T12:43:19;27.50;89.90
16064;DHT22;8136;53.172;8.256;2023-06-14T12:45:45;27.50;90.00
16064;DHT22;8136;53.172;8.256;2023-06-14T12:48:12;27.30;90.20
16064;DHT22;8136;53.172;8.256;2023-06-14T12:50:39;27.20;90.70
16064;DHT22;8136;53.172;8.256;2023-06-14T12:53:06;27.30;91.20
16064;DHT22;8136;53.172;8.256;2023-06-14T12:55:33;27.50;91.00
16064;DHT22;8136;53.172;8.256;2023-06-14T12:58:01;27.60;90.90
16064;DHT22;8136;53.172;8.256;2023-06-14T13:00:28;27.70;90.20
16064;DHT22;8136;53.172;8.256;2023-06-14T13:02:55;27.80;91.10
16064;DHT22;8136;53.172;8.256;2023-06-14T13:05:22;28.00;91.70
16064;DHT22;8136;53.172;8.256;2023-06-14T13:07:49;28.20;91.70
16064;DHT22;8136;53.172;8.256;2023-06-14T13:10:17;28.30;91.40
16064;DHT22;8136;53.172;8.256;2023-06-14T13:12:44;28.50;90.90
16064;DHT22;8136;53.172;8.256;2023-06-14T13:15:12;28.50;90.60
16064;DHT22;8136;53.172;8.256;2023-06-14T13:17:39;28.40;90.10
16064;DHT22;8136;53.172;8.256;2023-06-14T13:20:07;28.20;87.70
16064;DHT22;8136;53.172;8.256;2023-06-14T13:22:35;28.10;88.60
16064;DHT22;8136;53.172;8.256;2023-06-14T13:25:02;28.30;88.70
16064;DHT22;8136;53.172;8.256;2023-06-14T13:27:30;28.40;87.70
16064;DHT22;8136;53.172;8.256;2023-06-14T13:29:57;28.50;89.00
16064;DHT22;8136;53.172;8.256;2023-06-14T13:32:25;28.60;87.70
16064;DHT22;8136;53.172;8.256;2023-06-14T13:34:51;28.80;87.90
16064;DHT22;8136;53.172;8.256;2023-06-14T13:37:18;28.90;89.30
16064;DHT22;8136;53.172;8.256;2023-06-14T13:39:45;29.00;90.30
16064;DHT22;8136;53.172;8.256;2023-06-14T13:42:12;29.20;90.40
16064;DHT22;8136;53.172;8.256;2023-06-14T13:44:38;29.30;91.00
16064;DHT22;8136;53.172;8.256;2023-06-14T13:47:06;29.30;89.20
16064;DHT22;8136;53.172;8.256;2023-06-14T13:49:34;29.30;87.80
16064;DHT22;8136;53.172;8.256;2023-06-14T13:52:01;29.40;89.10
16064;DHT22;8136;53.172;8.256;2023-06-14T13:54:28;29.40;88.80
16064;DHT22;8136;53.172;8.256;2023-06-14T13:56:55;29.30;86.50
16064;DHT22;8136;53.172;8.256;2023-06-14T13:59:21;29.10;85.70
16064;DHT22;8136;53.172;8.256;2023-06-14T14:01:48;28.90;85.80
16064;DHT22;8136;53.172;8.256;2023-06-14T14:04:15;28.60;87.90
16064;DHT22;8136;53.172;8.256;2023-06-14T14:06:43;28.50;87.90
16064;DHT22;8136;53.172;8.256;2023-06-14T14:09:11;28.20;87.70
16064;DHT22;8136;53.172;8.256;2023-06-14T14:11:38;28.10;89.80
16064;DHT22;8136;53.172;8.256;2023-06-14T14:14:07;28.10;90.00
16064;DHT22;8136;53.172;8.256;2023-06-14T14:16:33;28.10;90.00
16064;DHT22;8136;53.172;8.256;2023-06-14T14:19:00;28.00;88.90
16064;DHT22;8136;53.172;8.256;2023-06-14T14:21:27;28.10;89.40
16064;DHT22;8136;53.172;8.256;2023-06-14T14:23:55;28.10;88.70
16064;DHT22;8136;53.172;8.256;2023-06-14T14:26:22;28.10;89.80
16064;DHT22;8136;53.172;8.256;2023-06-14T14:28:50;28.10;88.50
16064;DHT22;8136;53.172;8.256;2023-06-14T14:31:17;28.20;87.90
16064;DHT22;8136;53.172;8.256;2023-06-14T14:33:44;28.30;90.40
16064;DHT22;8136;53.172;8.256;2023-06-14T14:36:10;28.50;88.70
16064;DHT22;8136;53.172;8.256;2023-06-14T14:38:39;28.70;88.30
16064;DHT22;8136;53.172;8.256;2023-06-14T14:41:07;28.90;88.80
16064;DHT22;8136;53.172;8.256;2023-06-14T14:43:33;28.80;86.70
16064;DHT22;8136;53.172;8.256;2023-06-14T14:46:00;28.80;86.90
16064;DHT22;8136;53.172;8.256;2023-06-14T14:48:27;28.70;86.80
16064;DHT22;8136;53.172;8.256;2023-06-14T14:50:54;28.50;87.40
16064;DHT22;8136;53.172;8.256;2023-06-14T14:53:20;28.30;88.30
16064;DHT22;8136;53.172;8.256;2023-06-14T14:55:47;28.10;88.50
16064;DHT22;8136;53.172;8.256;2023-06-14T14:58:15;27.80;89.10
16064;DHT22;8136;53.172;8.256;2023-06-14T15:00:43;27.60;88.20
16064;DHT22;8136;53.172;8.256;2023-06-14T15:03:11;27.40;90.20
16064;DHT22;8136;53.172;8.256;2023-06-14T15:05:38;27.30;90.40
16064;DHT22;8136;53.172;8.256;2023-06-14T15:08:05;27.20;90.80
16064;DHT22;8136;53.172;8.256;2023-06-14T15:10:36;27.20;90.50
16064;DHT22;8136;53.172;8.256;2023-06-14T15:13:03;27.20;91.10
16064;DHT22;8136;53.172;8.256;2023-06-14T15:15:31;27.30;90.90
16064;DHT22;8136;53.172;8.256;2023-06-14T15:17:59;27.40;90.40
16064;DHT22;8136;53.172;8.256;2023-06-14T15:20:26;27.50;91.40
16064;DHT22;8136;53.172;8.256;2023-06-14T15:22:54;27.50;91.00
16064;DHT22;8136;53.172;8.256;2023-06-14T15:25:25;27.70;90.90
16064;DHT22;8136;53.172;8.256;2023-06-14T15:27:51;28.00;90.10
16064;DHT22;8136;53.172;8.256;2023-06-14T15:30:18;28.40;89.70
16064;DHT22;8136;53.172;8.256;2023-06-14T15:32:46;28.70;88.20
16064;DHT22;8136;53.172;8.256;2023-06-14T15:35:14;28.80;86.80
16064;DHT22;8136;53.172;8.256;2023-06-14T15:37:41;28.80;87.60
16064;DHT22;8136;53.172;8.256;2023-06-14T15:40:09;29.10;86.50
16064;DHT22;8136;53.172;8.256;2023-06-14T15:42:36;29.40;85.80
16064;DHT22;8136;53.172;8.256;2023-06-14T15:45:03;29.70;83.60
16064;DHT22;8136;53.172;8.256;2023-06-14T15:47:30;30.00;83.80
16064;DHT22;8136;53.172;8.256;2023-06-14T15:49:58;30.30;83.10
16064;DHT22;8136;53.172;8.256;2023-06-14T15:52:25;30.40;83.20
16064;DHT22;8136;53.172;8.256;2023-06-14T15:54:52;30.60;81.70
16064;DHT22;8136;53.172;8.256;2023-06-14T15:57:19;31.00;79.70
16064;DHT22;8136;53.172;8.256;2023-06-14T15:59:46;31.40;81.30